This is the latest recevied weather packets stored in our database for station/object SP4MAZ-13. If no packets are shown the sender has not sent any weather packets the latest 10 day(s).
| Time | Temp. | Humidity | Pressure | Rain* | Wind** | Luminosity | Snow |
|---|---|---|---|---|---|---|---|
| 1777526924 | 4.44° C | 72% | 2147.4 hPa | - | - | - | - |
| 1777526621 | 4.44° C | 69% | 2147.4 hPa | - | - | - | - |
| 1777526317 | 5° C | 68% | 2147.4 hPa | - | - | - | - |
| 1777526014 | 4.44° C | 68% | 2147.4 hPa | - | - | - | - |
| 1777525710 | 5° C | 63% | 2147.4 hPa | - | - | - | - |
| 1777525407 | 5.56° C | 60% | 2147.4 hPa | - | - | - | - |
| 1777525103 | 5.56° C | 63% | 2147.4 hPa | - | - | - | - |
| 1777524800 | 5° C | 64% | 2147.4 hPa | - | - | - | - |
| 1777524497 | 3.89° C | 67% | 2147.4 hPa | - | - | - | - |
| 1777524193 | 3.89° C | 65% | 2147.4 hPa | - | - | - | - |
| 1777523889 | 3.33° C | 66% | 2147.4 hPa | - | - | - | - |
| 1777523586 | 2.78° C | 66% | 2147.4 hPa | - | - | - | - |
| 1777523282 | 3.33° C | 69% | 2147.4 hPa | - | - | - | - |
| 1777522979 | 2.22° C | 74% | 2147.4 hPa | - | - | - | - |
| 1777522676 | 1.11° C | 76% | 2147.4 hPa | - | - | - | - |
| 1777522372 | 0.56° C | 81% | 2147.4 hPa | - | - | - | - |
| 1777522068 | -0.56° C | 84% | 2147.4 hPa | - | - | - | - |
| 1777521765 | -0.56° C | 86% | 2147.4 hPa | - | - | - | - |
| 1777521462 | -1.11° C | 90% | 2147.4 hPa | - | - | - | - |
| 1777521159 | -1.67° C | 92% | 2147.4 hPa | - | - | - | - |
| 1777520857 | -2.22° C | 94% | 2147.4 hPa | - | - | - | - |
| 1777520554 | -2.78° C | 95% | 2147.4 hPa | - | - | - | - |
| 1777520250 | -2.78° C | 97% | 2147.4 hPa | - | - | - | - |
| 1777519947 | -2.78° C | 98% | 2147.4 hPa | - | - | - | - |
| 1777519644 | -3.33° C | 99% | 2147.4 hPa | - | - | - | - |
* Rain since midnight (hover to see other rain measurements)
** Current wind speed in m/s (hover to see current wind gust speed)